Serednikovo, Russia
Current Conditions -  °F | °C
As of 10:30 AM on Saturday 29 Nov 2014 (Local Time) from UUWW Reporting Station
Broken Clouds Broken Clouds  
Wind Chill:   Ceiling: 20000
Heat Index: 14°   Visibility: 4mi
Dew Point: 12°   Wind: 4mph
Humidity: 93%   Direction: 110°ESE
Pressure: 30.56"   Gusts: NA
Location:  55.83°N, 35.82°E
Report Text: UUWW 290730Z 11002MPS 6000 SCT100 BKN200 M10/M11 Q1035 06290050NOSIG
Loading
Personal Weather Stations






























Interactive Weather Map New forecast layout! Learn more

10-Day Weather Forecast

Advertisements
Track Severe Weather on mobile